Time;durP1;ratioP1;P1;durP2;ratioP2;P2;SDS_P1;SDS_P2;PMS_P1;PMS_P2;Temp;Humidity;BMP_temperature;BMP_pressure;BME280_temperature;BME280_humidity;BME280_pressure;Samples;Min_cycle;Max_cycle;Signal;HPM_P1;HPM_P2
2021/09/09 00:05:40;;;;;;;33.80;18.87;;;;;;;11.47;84.75;99535.92;3990117;88;21179;-81
2021/09/09 00:11:43;;;;;;;32.08;20.32;;;;;;;11.44;85.10;99526.27;4005384;88;21678;-81
2021/09/09 00:17:46;;;;;;;28.23;16.50;;;;;;;11.40;85.14;99535.02;3989022;88;21055;-82
2021/09/09 00:23:48;;;;;;;30.70;18.65;;;;;;;11.33;85.45;99528.84;3997618;88;21444;-82
2021/09/09 00:29:49;;;;;;;26.12;16.37;;;;;;;11.26;85.34;99530.08;3984033;88;21079;-82
2021/09/09 00:35:51;;;;;;;26.73;16.80;;;;;;;11.14;85.62;99530.27;3982399;87;21055;-81
2021/09/09 00:41:53;;;;;;;25.40;15.95;;;;;;;11.05;85.58;99520.14;4000904;87;21107;-82
2021/09/09 00:47:54;;;;;;;25.10;16.67;;;;;;;10.97;85.77;99528.82;3966439;87;21033;-82
2021/09/09 00:53:56;;;;;;;23.52;16.52;;;;;;;10.87;85.94;99534.08;4000389;87;21037;-81
2021/09/09 00:59:58;;;;;;;22.00;15.40;;;;;;;10.83;86.03;99536.78;3972156;87;21107;-82
2021/09/09 01:06:00;;;;;;;26.33;17.02;;;;;;;10.80;86.19;99535.34;3975620;87;21102;-82
2021/09/09 01:12:03;;;;;;;24.23;15.90;;;;;;;10.72;86.13;99528.95;3957723;88;21107;-82
2021/09/09 01:18:12;;;;;;;23.42;15.20;;;;;;;10.75;86.32;99531.52;3960988;88;21127;-83
2021/09/09 01:24:21;;;;;;;21.20;14.73;;;;;;;10.51;86.25;99535.36;3957724;88;21095;-81
2021/09/09 01:30:24;;;;;;;26.97;15.75;;;;;;;10.44;86.57;99531.70;3963308;88;21084;-83
2021/09/09 01:36:25;;;;;;;25.77;15.25;;;;;;;10.42;86.49;99534.00;3992418;88;21166;-83
2021/09/09 01:42:27;;;;;;;18.45;13.25;;;;;;;10.28;86.68;99532.34;3927906;89;21138;-82
2021/09/09 01:48:34;;;;;;;20.75;14.00;;;;;;;10.26;87.08;99529.97;4030221;88;21055;-82
2021/09/09 01:54:35;;;;;;;21.20;13.30;;;;;;;10.20;86.89;99526.50;3993734;88;21149;-82
2021/09/09 02:00:36;;;;;;;22.73;13.75;;;;;;;10.21;87.27;99524.00;4013936;88;21633;-81
2021/09/09 02:06:39;;;;;;;20.60;13.75;;;;;;;10.18;87.09;99531.56;3999530;88;21054;-81
2021/09/09 02:12:40;;;;;;;21.50;13.13;;;;;;;10.08;87.24;99537.59;3989018;88;21085;-81
2021/09/09 02:18:41;;;;;;;19.05;12.37;;;;;;;10.07;87.12;99535.98;3932505;89;21929;-82
2021/09/09 02:24:47;;;;;;;19.55;13.38;;;;;;;9.95;87.32;99531.98;4008162;88;21133;-82
2021/09/09 02:30:48;;;;;;;21.48;13.88;;;;;;;9.92;87.34;99523.13;3955957;89;21113;-83
2021/09/09 02:44:19;;;;;;;19.40;13.03;;;;;;;9.97;88.71;99522.86;3920804;89;21029;-81
2021/09/09 02:50:21;;;;;;;20.10;13.38;;;;;;;10.08;87.86;99512.41;4002531;88;21536;-81
2021/09/09 02:56:23;;;;;;;22.55;12.65;;;;;;;9.91;87.56;99512.78;3924369;89;21091;-81
2021/09/09 03:02:25;;;;;;;20.88;11.63;;;;;;;9.76;87.48;99510.88;3955020;89;21061;-81
2021/09/09 03:08:27;;;;;;;20.72;13.38;;;;;;;9.82;88.70;99525.08;4040489;86;21050;-84
2021/09/09 03:14:28;;;;;;;20.60;13.45;;;;;;;9.85;87.90;99514.19;3967634;89;21084;-83
2021/09/09 03:20:30;;;;;;;19.55;13.32;;;;;;;9.76;88.01;99516.91;3961176;89;21120;-82
2021/09/09 03:26:31;;;;;;;22.55;13.90;;;;;;;9.68;88.08;99522.02;3955811;89;21046;-82
2021/09/09 03:32:32;;;;;;;22.50;13.72;;;;;;;9.71;88.04;99532.24;4012735;87;21062;-82
2021/09/09 03:38:34;;;;;;;28.52;15.18;;;;;;;9.51;87.96;99525.91;4008708;87;21054;-82
2021/09/09 03:44:35;;;;;;;23.25;13.60;;;;;;;9.38;87.97;99522.48;3973699;88;21139;-81
2021/09/09 03:50:37;;;;;;;21.87;13.75;;;;;;;9.28;88.29;99520.87;4007145;87;21668;-82
2021/09/09 03:56:39;;;;;;;23.00;13.60;;;;;;;9.27;88.45;99519.30;4001884;87;21487;-82
2021/09/09 04:02:40;;;;;;;18.15;13.55;;;;;;;9.29;88.42;99519.16;3954727;89;21074;-82
2021/09/09 04:08:42;;;;;;;22.05;13.43;;;;;;;9.34;88.78;99516.72;3964526;88;21561;-82
2021/09/09 04:14:43;;;;;;;21.27;12.95;;;;;;;9.30;88.62;99517.99;3959127;89;21142;-82
2021/09/09 04:20:45;;;;;;;24.45;13.53;;;;;;;9.33;89.35;99510.45;3986131;88;21089;-82
2021/09/09 04:26:49;;;;;;;20.70;13.98;;;;;;;9.44;89.15;99514.23;3939569;89;21056;-82
2021/09/09 04:32:50;;;;;;;19.75;12.78;;;;;;;9.37;88.78;99519.55;3914432;89;21081;-83
2021/09/09 04:38:52;;;;;;;21.42;13.88;;;;;;;9.26;88.63;99510.86;3936575;89;21109;-82
2021/09/09 04:44:53;;;;;;;23.30;14.13;;;;;;;9.13;88.73;99523.05;3937655;89;21686;-81
2021/09/09 04:50:54;;;;;;;19.07;12.13;;;;;;;9.10;89.17;99523.72;3982637;88;21114;-82
2021/09/09 04:56:56;;;;;;;22.30;13.80;;;;;;;9.11;89.32;99522.59;3931608;89;21529;-83
2021/09/09 05:02:58;;;;;;;18.77;13.70;;;;;;;9.07;89.47;99517.04;3975038;88;22352;-82
2021/09/09 05:09:00;;;;;;;21.25;13.25;;;;;;;9.11;89.73;99512.44;4000006;87;21106;-81
2021/09/09 05:15:03;;;;;;;25.00;14.03;;;;;;;9.28;90.80;99513.48;3954868;89;21069;-82
2021/09/09 05:21:04;;;;;;;25.80;15.23;;;;;;;9.62;90.67;99511.12;3998692;87;21066;-81
2021/09/09 05:27:05;;;;;;;25.48;14.80;;;;;;;9.75;90.46;99518.06;3963163;89;21110;-82
2021/09/09 05:33:07;;;;;;;22.42;12.70;;;;;;;9.81;90.78;99508.43;4024809;87;21089;-82
2021/09/09 05:39:08;;;;;;;27.37;13.15;;;;;;;9.95;91.48;99512.28;4040831;87;21546;-82
2021/09/09 05:45:10;;;;;;;43.50;18.23;;;;;;;10.26;91.57;99507.27;4031453;87;21031;-85
2021/09/09 05:51:13;;;;;;;32.70;15.08;;;;;;;10.43;91.94;99498.65;4040108;87;21557;-82
2021/09/09 05:57:14;;;;;;;26.60;16.93;;;;;;;10.66;92.13;99506.33;4035981;87;21097;-82
2021/09/09 06:03:17;;;;;;;30.48;19.75;;;;;;;10.90;92.45;99495.01;4003097;87;21625;-82
2021/09/09 06:09:19;;;;;;;35.30;21.90;;;;;;;11.14;92.58;99497.39;3961345;88;21531;-82
2021/09/09 06:15:21;;;;;;;27.70;18.35;;;;;;;11.37;92.60;99492.67;3964642;89;21536;-82
2021/09/09 06:21:23;;;;;;;23.85;17.27;;;;;;;11.73;92.82;99490.70;3962085;89;21090;-82
2021/09/09 06:27:24;;;;;;;25.23;16.67;;;;;;;12.16;92.92;99495.61;3918106;89;21124;-82
2021/09/09 06:33:25;;;;;;;27.32;17.62;;;;;;;12.51;92.42;99489.76;3925215;89;21131;-81
2021/09/09 06:39:26;;;;;;;25.80;16.95;;;;;;;12.80;92.12;99486.70;3919366;89;21107;-83
2021/09/09 06:45:28;;;;;;;22.73;15.28;;;;;;;12.97;91.99;99485.50;3930173;89;21777;-83
2021/09/09 06:51:30;;;;;;;25.55;15.90;;;;;;;13.17;91.63;99481.39;3945220;89;22311;-82
2021/09/09 06:57:32;;;;;;;23.55;15.55;;;;;;;13.40;91.59;99481.19;3931006;89;21765;-82
2021/09/09 07:03:33;;;;;;;28.23;15.55;;;;;;;13.66;91.57;99480.97;3925363;89;21541;-82
2021/09/09 07:09:34;;;;;;;22.82;15.08;;;;;;;13.91;91.30;99479.15;3989840;87;21082;-82
2021/09/09 07:15:36;;;;;;;21.57;13.18;;;;;;;14.19;91.47;99471.83;4004344;87;21502;-82
2021/09/09 07:21:39;;;;;;;18.05;11.80;;;;;;;14.50;91.16;99475.88;4002966;87;21074;-83
2021/09/09 07:27:40;;;;;;;18.87;12.65;;;;;;;14.79;90.88;99476.17;4000263;87;21621;-82
2021/09/09 07:33:43;;;;;;;22.25;12.33;;;;;;;15.10;90.99;99473.23;4004410;87;21053;-83
2021/09/09 07:39:45;;;;;;;17.60;11.43;;;;;;;15.39;90.73;99475.63;3996422;87;21142;-83
2021/09/09 07:45:47;;;;;;;17.90;11.40;;;;;;;15.79;90.67;99483.27;4003415;87;21078;-83
2021/09/09 07:51:49;;;;;;;14.05;9.95;;;;;;;16.22;90.33;99479.20;4000138;87;21046;-82
2021/09/09 07:57:50;;;;;;;16.67;10.18;;;;;;;16.69;89.69;99472.50;4000728;87;21066;-83
2021/09/09 08:03:54;;;;;;;15.30;9.03;;;;;;;17.18;89.00;99474.91;4004796;87;21092;-82
2021/09/09 08:09:56;;;;;;;14.10;8.85;;;;;;;17.69;88.47;99469.16;3992617;87;21181;-83
2021/09/09 08:15:58;;;;;;;11.93;8.28;;;;;;;18.20;87.15;99475.31;3993022;87;21048;-83
2021/09/09 08:21:59;;;;;;;9.70;7.50;;;;;;;18.57;86.31;99466.17;3992983;87;21210;-83
2021/09/09 08:28:01;;;;;;;14.85;8.45;;;;;;;18.91;85.12;99458.54;3989098;87;21149;-83
2021/09/09 08:34:02;;;;;;;9.50;6.60;;;;;;;19.21;84.53;99457.08;3988898;87;21178;-82
2021/09/09 08:40:08;;;;;;;12.60;6.55;;;;;;;19.49;82.75;99459.41;3991156;87;21152;-84
2021/09/09 08:46:12;;;;;;;12.10;7.15;;;;;;;19.77;81.49;99453.34;3990482;87;21058;-83
2021/09/09 08:52:13;;;;;;;9.63;6.12;;;;;;;20.08;80.93;99447.77;3994624;87;21092;-83
2021/09/09 08:58:16;;;;;;;8.15;5.92;;;;;;;20.32;76.31;99449.90;3991310;87;21084;-82
2021/09/09 09:04:18;;;;;;;8.95;6.10;;;;;;;20.68;78.02;99450.70;3988922;87;21111;-83
2021/09/09 09:10:23;;;;;;;10.10;5.70;;;;;;;21.07;76.49;99435.90;3998745;87;22007;-83
2021/09/09 09:16:27;;;;;;;7.75;5.75;;;;;;;21.36;74.82;99434.00;3983466;87;21085;-83
2021/09/09 09:22:31;;;;;;;9.68;5.17;;;;;;;21.87;73.20;99432.26;4020991;87;21164;-85
2021/09/09 09:28:49;;;;;;;8.58;5.25;;;;;;;22.68;72.19;99430.09;4018750;87;21050;-82
2021/09/09 09:34:50;;;;;;;7.83;5.10;;;;;;;23.67;71.37;99432.44;3977114;88;21546;-84
2021/09/09 09:40:54;;;;;;;7.20;4.60;;;;;;;24.50;68.95;99413.80;3978378;88;21059;-84
2021/09/09 09:47:11;;;;;;;6.55;4.05;;;;;;;25.28;66.32;99419.88;3982812;88;21113;-83
2021/09/09 09:53:18;;;;;;;8.23;4.53;;;;;;;26.21;64.02;99413.44;3986933;88;21398;-83
2021/09/09 09:59:20;;;;;;;6.90;4.35;;;;;;;26.99;62.25;99415.55;3983242;88;22304;-84
2021/09/09 10:05:23;;;;;;;4.95;4.42;;;;;;;27.48;60.34;99417.95;3986444;88;21095;-84
2021/09/09 10:11:29;;;;;;;6.75;4.03;;;;;;;28.10;57.09;99410.27;3994436;86;116897;-84
2021/09/09 10:17:33;;;;;;;;;;;;;;;28.91;55.67;99398.11;3843170;91;21693;-84
2021/09/09 10:23:34;;;;;;;7.20;3.90;;;;;;;29.23;51.04;99389.26;3924331;90;20929;-84
2021/09/09 10:30:06;;;;;;;6.90;3.80;;;;;;;29.81;51.71;99388.22;3923042;88;21088;-84
2021/09/09 10:36:00;;;;;;;5.17;3.72;;;;;;;30.25;49.25;99382.45;3925145;89;21197;-85
2021/09/09 10:42:40;;;;;;;6.62;3.98;;;;;;;30.32;47.30;99376.98;3875850;91;21072;-87
2021/09/09 10:48:46;;;;;;;5.45;3.70;;;;;;;29.90;39.42;99378.18;3925443;89;21721;-85
2021/09/09 10:55:10;;;;;;;4.45;3.87;;;;;;;29.78;42.15;99374.48;3903330;90;21158;-85
2021/09/09 11:01:12;;;;;;;8.10;4.00;;;;;;;29.96;41.89;99362.11;3928373;90;21140;-83
2021/09/09 11:07:27;;;;;;;4.53;3.83;;;;;;;30.02;42.06;99353.80;3918989;89;21661;-84
2021/09/09 11:13:32;;;;;;;;;;;;;;;30.19;40.75;99349.75;3928452;89;21061;-84
2021/09/09 11:19:34;;;;;;;7.20;4.10;;;;;;;30.31;39.71;99341.53;3931244;90;20181;-83
2021/09/09 11:25:35;;;;;;;5.15;4.05;;;;;;;30.36;41.59;99335.95;3926739;90;21104;-84
2021/09/09 11:31:51;;;;;;;7.20;4.05;;;;;;;29.82;39.45;99335.52;3923907;89;21554;-83
2021/09/09 11:37:53;;;;;;;;;;;;;;;29.00;34.73;99328.19;3868012;91;21166;-83
2021/09/09 11:43:59;;;;;;;5.28;4.35;;;;;;;28.23;35.20;99322.73;3864942;90;20188;-85
2021/09/09 11:50:05;;;;;;;5.10;4.10;;;;;;;27.55;34.36;99324.16;3848811;90;21584;-83
2021/09/09 11:56:16;;;;;;;6.75;4.20;;;;;;;26.88;36.46;99304.95;3812835;92;21160;-83
2021/09/09 12:02:21;;;;;;;4.45;3.50;;;;;;;26.83;37.26;99307.00;3923191;90;21399;-84
2021/09/09 12:08:23;;;;;;;5.65;3.70;;;;;;;26.66;37.03;99311.47;3899528;88;21136;-84
2021/09/09 12:14:24;;;;;;;7.37;4.03;;;;;;;26.30;36.42;99307.38;3820897;92;21088;-83
2021/09/09 12:20:26;;;;;;;6.37;3.87;;;;;;;26.21;37.00;99291.99;3903930;90;21090;-82
2021/09/09 12:26:27;;;;;;;6.20;3.55;;;;;;;25.93;34.68;99294.08;3908187;90;21057;-82
2021/09/09 12:32:30;;;;;;;6.85;3.50;;;;;;;25.65;33.04;99286.33;3908220;90;21130;-85
2021/09/09 12:38:44;;;;;;;6.75;4.62;;;;;;;25.36;35.45;99281.06;3900146;90;21670;-83
2021/09/09 12:44:43;;;;;;;7.30;4.10;;;;;;;25.32;35.01;99277.62;3901370;90;21061;-84
2021/09/09 12:51:07;;;;;;;6.37;4.55;;;;;;;25.18;36.30;99269.22;3826186;92;21154;-83
2021/09/09 12:57:08;;;;;;;4.70;3.87;;;;;;;24.98;36.78;99259.71;3879999;90;21082;-83
2021/09/09 13:03:09;;;;;;;4.80;3.80;;;;;;;24.92;37.86;99264.38;3874561;90;21309;-83
2021/09/09 13:09:11;;;;;;;9.28;6.60;;;;;;;24.64;38.58;99223.70;3876144;90;21666;-83
2021/09/09 13:15:13;;;;;;;6.58;4.05;;;;;;;24.64;38.58;99223.70;3880442;90;21589;-84
2021/09/09 13:21:22;;;;;;;5.62;4.05;;;;;;;24.57;39.13;99226.78;3877652;90;21116;-81
2021/09/09 13:27:22;;;;;;;6.35;4.55;;;;;;;24.55;38.67;99237.69;3881509;90;21090;-83
2021/09/09 13:33:23;;;;;;;7.25;4.40;;;;;;;24.47;39.09;99233.62;3807206;92;21160;-83
2021/09/09 13:39:24;;;;;;;5.45;3.92;;;;;;;24.48;39.09;99227.38;3792963;91;21077;-83
2021/09/09 13:45:25;;;;;;;5.37;4.00;;;;;;;24.47;39.12;99216.05;3887313;90;21089;-82
2021/09/09 13:51:28;;;;;;;5.25;4.30;;;;;;;24.33;40.19;99213.83;3822398;92;21687;-83
2021/09/09 13:57:29;;;;;;;5.22;4.50;;;;;;;24.29;39.80;99207.61;3785143;93;22004;-86
2021/09/09 14:03:30;;;;;;;4.80;4.10;;;;;;;24.13;41.08;99207.22;3821582;90;21187;-85
2021/09/09 14:09:31;;;;;;;5.15;3.90;;;;;;;24.06;41.52;99200.53;3843527;91;21583;-82
2021/09/09 14:15:33;;;;;;;6.67;4.28;;;;;;;24.04;42.02;99200.20;3844448;91;21063;-82
2021/09/09 14:21:36;;;;;;;5.75;4.37;;;;;;;23.98;42.59;99200.66;3862403;91;21072;-82
2021/09/09 14:27:38;;;;;;;6.80;4.62;;;;;;;24.01;43.10;99196.14;3843220;91;21095;-82
2021/09/09 14:33:40;;;;;;;7.60;4.95;;;;;;;24.06;42.68;99195.55;3847215;91;21126;-83
2021/09/09 14:39:41;;;;;;;6.95;4.70;;;;;;;24.07;43.59;99196.48;3842054;91;21489;-82
2021/09/09 14:45:42;;;;;;;7.87;5.03;;;;;;;23.90;44.26;99189.56;3842845;91;21618;-84
2021/09/09 14:51:43;;;;;;;8.35;4.55;;;;;;;23.75;44.55;99189.97;3848267;91;21285;-83
2021/09/09 14:57:45;;;;;;;8.70;4.90;;;;;;;23.68;44.99;99183.88;3850495;91;21146;-83
2021/09/09 15:03:46;;;;;;;7.60;5.37;;;;;;;23.58;45.37;99173.88;3848008;91;21023;-83
2021/09/09 15:09:48;;;;;;;7.15;5.15;;;;;;;23.52;45.95;99174.31;3843990;91;21103;-82
2021/09/09 15:15:49;;;;;;;6.97;5.40;;;;;;;23.44;46.64;99172.41;3847361;91;21430;-84
2021/09/09 15:21:50;;;;;;;7.33;5.50;;;;;;;23.32;47.11;99169.06;3848114;91;21186;-83
2021/09/09 15:27:51;;;;;;;7.70;5.92;;;;;;;23.20;47.85;99167.10;3733324;90;9999901;-83
2021/09/09 15:33:53;;;;;;;12.25;6.10;;;;;;;23.08;48.43;99167.95;3840069;90;21043;-82
2021/09/09 15:39:54;;;;;;;10.08;5.97;;;;;;;22.95;49.26;99163.05;3838101;91;21135;-83
2021/09/09 15:45:55;;;;;;;10.13;6.22;;;;;;;22.84;49.64;99162.64;3847248;91;21008;-85
2021/09/09 15:51:57;;;;;;;9.80;6.05;;;;;;;22.73;50.30;99157.45;3838120;91;21023;-83
2021/09/09 15:57:58;;;;;;;10.40;6.62;;;;;;;22.61;50.94;99153.30;3849689;91;21015;-83
2021/09/09 16:04:01;;;;;;;9.90;5.72;;;;;;;22.50;51.34;99150.86;3869426;91;21072;-83
2021/09/09 16:10:03;;;;;;;7.40;5.95;;;;;;;22.42;51.69;99150.15;3893198;90;21097;-84
2021/09/09 16:16:05;;;;;;;10.55;6.70;;;;;;;22.27;52.23;99142.11;3898547;90;21752;-83
2021/09/09 16:22:07;;;;;;;9.53;6.47;;;;;;;22.15;52.64;99138.11;3898956;90;21118;-82
2021/09/09 16:28:08;;;;;;;9.78;7.00;;;;;;;22.05;53.02;99130.11;3917758;90;21100;-85
2021/09/09 16:34:09;;;;;;;11.22;7.70;;;;;;;21.90;53.52;99133.95;3917719;90;21104;-84
2021/09/09 16:40:12;;;;;;;10.63;7.90;;;;;;;21.74;54.07;99140.41;3789815;92;21192;-83
2021/09/09 16:46:14;;;;;;;12.35;7.53;;;;;;;21.51;54.97;99130.20;3902346;89;21098;-83
2021/09/09 16:52:18;;;;;;;10.65;7.45;;;;;;;21.25;55.57;99127.98;3904286;89;21240;-83
2021/09/09 16:58:20;;;;;;;11.18;7.60;;;;;;;20.97;56.51;99128.81;3902473;90;21125;-83
2021/09/09 17:04:23;;;;;;;10.53;7.40;;;;;;;20.74;57.72;99124.09;3927169;90;21030;-83
2021/09/09 17:10:24;;;;;;;13.62;8.65;;;;;;;20.49;58.63;99127.55;3908900;89;21081;-83
2021/09/09 17:16:26;;;;;;;12.45;8.30;;;;;;;20.13;59.25;99124.09;3890693;90;21873;-83
2021/09/09 17:22:27;;;;;;;16.20;8.15;;;;;;;19.78;60.33;99129.14;3927812;90;21906;-83
2021/09/09 17:28:31;;;;;;;14.03;9.63;;;;;;;19.43;61.09;99130.73;3895175;90;21102;-83
2021/09/09 17:34:33;;;;;;;28.60;18.07;;;;;;;19.10;61.87;99135.98;3907277;90;21108;-82
2021/09/09 17:40:34;;;;;;;20.62;10.65;;;;;;;18.83;62.64;99138.71;3894538;90;21090;-83
2021/09/09 17:46:43;;;;;;;274.90;146.25;;;;;;;18.56;63.38;99145.76;3932216;90;21044;-82
2021/09/09 17:52:44;;;;;;;35.50;20.72;;;;;;;18.31;64.18;99146.78;3889899;90;21080;-82
2021/09/09 17:58:46;;;;;;;26.33;17.85;;;;;;;18.08;65.63;99150.94;3935515;90;21048;-83
2021/09/09 18:04:47;;;;;;;24.43;15.43;;;;;;;17.87;65.72;99151.30;3889871;90;21972;-82
2021/09/09 18:10:48;;;;;;;147.40;83.97;;;;;;;17.67;66.23;99154.55;3894072;90;21026;-84
2021/09/09 18:17:44;;;;;;;43.30;26.45;;;;;;;17.59;67.15;99163.56;3894604;90;21050;-82
2021/09/09 18:23:45;;;;;;;37.60;22.60;;;;;;;17.29;67.69;99163.55;3785890;90;10000391;-83
2021/09/09 18:29:47;;;;;;;42.62;24.18;;;;;;;17.08;68.48;99163.84;3905316;90;21061;-84
2021/09/09 18:35:48;;;;;;;38.28;21.93;;;;;;;16.92;69.09;99171.92;3908713;90;21053;-83
2021/09/09 18:41:50;;;;;;;37.88;22.40;;;;;;;16.67;69.67;99172.79;3894500;90;21116;-82
2021/09/09 18:54:57;;;;;;;50.50;28.23;;;;;;;16.17;70.91;99182.70;3891292;90;21076;-82
2021/09/09 19:00:58;;;;;;;58.92;34.20;;;;;;;16.21;71.78;99184.24;3892870;90;21044;-82
2021/09/09 19:07:00;;;;;;;76.12;41.25;;;;;;;16.19;71.99;99178.95;3900479;90;22052;-83
2021/09/09 19:13:02;;;;;;;53.35;30.25;;;;;;;16.02;72.46;99189.55;3923607;90;21058;-83
2021/09/09 19:19:07;;;;;;;55.10;29.12;;;;;;;15.82;72.79;99183.77;3905422;90;21187;-82
2021/09/09 19:25:10;;;;;;;82.15;42.83;;;;;;;15.53;73.02;99181.77;3898713;90;21724;-82
2021/09/09 19:31:11;;;;;;;47.90;25.12;;;;;;;15.39;73.61;99192.87;3918624;90;21028;-83
2021/09/09 19:37:12;;;;;;;43.58;21.42;;;;;;;15.24;74.31;99204.34;3780228;92;21160;-82
2021/09/09 19:43:16;;;;;;;44.58;23.40;;;;;;;15.13;74.60;99197.51;3855117;91;21076;-82
2021/09/09 19:49:18;;;;;;;35.78;20.65;;;;;;;15.03;75.30;99198.94;3900145;90;22421;-82
2021/09/09 19:55:20;;;;;;;32.05;19.05;;;;;;;15.03;75.34;99202.48;3923427;90;21735;-82
2021/09/09 20:01:21;;;;;;;36.30;19.12;;;;;;;14.84;75.42;99199.38;3781225;93;21419;-82
2021/09/09 20:07:22;;;;;;;34.00;19.37;;;;;;;14.62;75.45;99205.54;3853603;91;21054;-82
2021/09/09 20:13:25;;;;;;;32.98;19.87;;;;;;;14.47;76.00;99210.09;3887178;90;21102;-84
2021/09/09 20:19:26;;;;;;;29.25;17.35;;;;;;;14.37;76.59;99210.88;3768046;92;21120;-83
2021/09/09 20:25:28;;;;;;;28.23;18.87;;;;;;;14.35;77.21;99215.40;3834735;91;21156;-82
2021/09/09 20:31:29;;;;;;;42.88;24.98;;;;;;;14.26;77.06;99220.52;3881666;90;21689;-83
2021/09/09 20:37:30;;;;;;;32.53;20.55;;;;;;;14.07;77.19;99220.88;3875827;90;21094;-85
2021/09/09 20:43:33;;;;;;;30.27;19.15;;;;;;;13.92;77.55;99227.55;3888008;90;21054;-83
2021/09/09 20:49:38;;;;;;;28.12;18.95;;;;;;;13.70;77.59;99223.19;3876128;90;22119;-82
2021/09/09 20:55:39;;;;;;;32.03;21.87;;;;;;;13.51;78.30;99241.41;3877946;90;21102;-82
2021/09/09 21:01:41;;;;;;;31.30;21.02;;;;;;;13.47;78.28;99239.22;3766353;93;21148;-82
2021/09/09 21:07:42;;;;;;;35.55;21.87;;;;;;;13.32;78.75;99243.89;3880443;90;21108;-82
2021/09/09 21:13:43;;;;;;;36.20;22.85;;;;;;;13.17;79.06;99238.12;3894901;90;21129;-82
2021/09/09 21:19:45;;;;;;;37.53;22.50;;;;;;;13.11;79.43;99241.03;3772142;93;21134;-82
2021/09/09 21:25:46;;;;;;;34.85;22.05;;;;;;;13.09;79.48;99248.88;3897592;90;21073;-82
2021/09/09 21:31:47;;;;;;;38.23;21.62;;;;;;;12.91;79.20;99248.55;3900522;90;21069;-82
2021/09/09 21:37:49;;;;;;;37.13;21.95;;;;;;;12.72;79.79;99257.86;3894126;90;21618;-82
2021/09/09 21:43:50;;;;;;;39.18;24.40;;;;;;;12.58;79.96;99260.50;3902128;90;21544;-82
2021/09/09 21:49:52;;;;;;;37.00;20.92;;;;;;;12.49;80.26;99264.17;3893776;90;21069;-81
2021/09/09 21:55:53;;;;;;;37.10;22.32;;;;;;;12.32;80.21;99267.57;3900020;89;21961;-82
2021/09/09 22:01:56;;;;;;;46.23;23.77;;;;;;;12.24;80.61;99268.09;3902977;89;21637;-82
2021/09/09 22:07:58;;;;;;;42.78;24.27;;;;;;;12.20;80.87;99277.47;3905415;90;21093;-82
2021/09/09 22:14:00;;;;;;;40.63;22.40;;;;;;;12.07;80.90;99274.79;3897882;90;21202;-82
2021/09/09 22:20:04;;;;;;;35.43;22.42;;;;;;;12.03;81.29;99278.06;3922180;88;21041;-82
2021/09/09 22:26:06;;;;;;;32.10;18.90;;;;;;;11.87;81.23;99282.42;3851407;91;21111;-82
2021/09/09 22:32:08;;;;;;;28.07;19.80;;;;;;;11.78;81.44;99279.77;3847759;91;21521;-82
2021/09/09 22:38:10;;;;;;;28.45;17.48;;;;;;;11.70;81.65;99276.77;3900433;90;21207;-82
2021/09/09 22:44:11;;;;;;;28.83;16.77;;;;;;;11.72;82.06;99273.84;3919441;90;21459;-83
2021/09/09 22:50:15;;;;;;;30.68;18.42;;;;;;;11.66;82.28;99272.61;3847901;91;21151;-82
2021/09/09 22:56:16;;;;;;;23.32;15.75;;;;;;;11.74;82.42;99270.16;3929662;90;21707;-82
2021/09/09 23:02:18;;;;;;;23.38;15.63;;;;;;;11.57;82.13;99269.34;3852419;91;21042;-82
2021/09/09 23:08:19;;;;;;;25.88;15.72;;;;;;;11.41;81.83;99269.33;3857602;91;21111;-82
2021/09/09 23:14:21;;;;;;;26.90;16.30;;;;;;;11.15;82.14;99268.80;3911073;90;21127;-81
2021/09/09 23:20:23;;;;;;;27.70;16.87;;;;;;;11.05;82.53;99263.98;3909854;90;21268;-81
2021/09/09 23:26:24;;;;;;;24.23;15.98;;;;;;;10.92;82.76;99265.37;3901744;90;21092;-82
2021/09/09 23:32:26;;;;;;;29.07;17.07;;;;;;;11.01;82.91;99260.39;3909110;90;21125;-82
2021/09/09 23:38:27;;;;;;;27.70;16.17;;;;;;;10.84;82.77;99267.22;3898662;90;21674;-81
2021/09/09 23:44:29;;;;;;;25.60;16.62;;;;;;;10.74;82.93;99265.11;3918093;90;21722;-82
2021/09/09 23:50:30;;;;;;;23.45;16.62;;;;;;;10.76;83.25;99268.27;3843046;91;21112;-81
2021/09/09 23:56:31;;;;;;;25.12;15.88;;;;;;;10.63;83.51;99266.12;3903263;90;21577;-81
